Time;durP1;ratioP1;P1;durP2;ratioP2;P2;SDS_P1;SDS_P2;PMS_P1;PMS_P2;Temp;Humidity;BMP_temperature;BMP_pressure;BME280_temperature;BME280_humidity;BME280_pressure;Samples;Min_cycle;Max_cycle;Signal;HPM_P1;HPM_P2
2022/07/02 00:01:19;;;;;;;13.73;8.43;;;;;;;15.19;100.00;102035.53;10377872;28;20071;-64
2022/07/02 00:06:19;;;;;;;15.73;8.30;;;;;;;15.21;100.00;102024.19;10377249;27;20055;-64
2022/07/02 00:11:16;;;;;;;14.10;8.63;;;;;;;15.22;100.00;102018.34;10378083;28;20092;-65
2022/07/02 00:16:13;;;;;;;14.27;8.60;;;;;;;15.18;100.00;102017.38;10359968;28;20093;-64
2022/07/02 00:21:10;;;;;;;11.85;7.82;;;;;;;15.11;100.00;102017.84;10370538;28;20392;-64
2022/07/02 00:26:31;;;;;;;12.50;7.97;;;;;;;15.06;100.00;102025.41;10361586;28;20078;-68
2022/07/02 00:31:28;;;;;;;12.50;7.65;;;;;;;15.02;100.00;102018.94;10386330;28;20124;-68
2022/07/02 00:36:25;;;;;;;13.63;8.38;;;;;;;14.96;100.00;102021.00;10371815;28;20101;-66
2022/07/02 00:41:21;;;;;;;11.05;7.68;;;;;;;14.90;100.00;102014.00;10375593;28;20065;-66
2022/07/02 00:46:21;;;;;;;12.52;8.13;;;;;;;14.86;100.00;102008.31;10373808;27;20081;-69
2022/07/02 00:51:17;;;;;;;11.32;8.18;;;;;;;14.81;100.00;102019.47;10385472;28;20047;-68
2022/07/02 00:56:14;;;;;;;12.88;8.60;;;;;;;14.78;100.00;102020.06;10379224;28;20127;-70
2022/07/02 01:01:10;;;;;;;12.50;8.25;;;;;;;14.70;100.00;102018.09;10374351;28;20085;-70
2022/07/02 01:06:07;;;;;;;16.15;9.73;;;;;;;14.67;100.00;102018.72;10364955;27;20048;-70
2022/07/02 01:11:04;;;;;;;13.05;8.38;;;;;;;14.62;100.00;102022.44;10361789;28;20048;-70
2022/07/02 01:16:01;;;;;;;13.80;8.40;;;;;;;14.58;100.00;102021.41;10379396;28;20123;-69
2022/07/02 01:20:57;;;;;;;11.38;7.57;;;;;;;14.55;100.00;102026.72;10379049;28;20127;-70
2022/07/02 01:25:54;;;;;;;13.05;8.38;;;;;;;14.51;100.00;102029.28;10379042;28;20071;-67
2022/07/02 01:30:51;;;;;;;11.75;8.27;;;;;;;14.48;100.00;102032.63;10364978;28;20044;-69
2022/07/02 01:35:48;;;;;;;10.98;7.82;;;;;;;14.45;100.00;102025.81;10380318;28;20076;-69
2022/07/02 01:40:44;;;;;;;12.02;7.97;;;;;;;14.43;100.00;102028.06;10377294;28;20089;-69
2022/07/02 01:45:41;;;;;;;13.82;8.70;;;;;;;14.42;100.00;102033.91;10380385;28;20453;-68
2022/07/02 01:50:38;;;;;;;11.30;8.27;;;;;;;14.39;100.00;102035.34;10391488;28;20047;-68
2022/07/02 01:55:34;;;;;;;13.55;7.40;;;;;;;14.40;100.00;102041.66;10384008;27;20485;-68
2022/07/02 02:00:31;;;;;;;10.70;7.47;;;;;;;14.44;100.00;102054.47;10375535;28;20040;-69
2022/07/02 02:05:27;;;;;;;12.70;6.80;;;;;;;14.44;100.00;102042.66;10371398;28;20074;-69
2022/07/02 02:10:24;;;;;;;13.15;6.32;;;;;;;14.43;100.00;102058.31;10384583;28;20152;-68
2022/07/02 02:15:20;;;;;;;8.88;5.78;;;;;;;14.41;100.00;102060.59;10390424;28;20043;-68
2022/07/02 02:20:17;;;;;;;11.57;6.25;;;;;;;14.40;100.00;102063.66;10381574;28;20141;-68
2022/07/02 02:25:13;;;;;;;10.80;5.03;;;;;;;14.40;100.00;102058.97;10384228;28;20520;-68
2022/07/02 02:30:10;;;;;;;7.82;4.18;;;;;;;14.47;100.00;102064.84;10389697;28;20074;-68
2022/07/02 02:35:07;;;;;;;8.32;4.22;;;;;;;14.54;100.00;102072.69;10381995;27;20530;-68
2022/07/02 02:40:04;;;;;;;7.90;4.38;;;;;;;14.51;100.00;102082.38;10372362;28;20044;-68
2022/07/02 02:45:00;;;;;;;8.40;4.30;;;;;;;14.46;100.00;102079.75;10386333;28;20434;-69
2022/07/02 02:49:57;;;;;;;11.80;4.13;;;;;;;14.45;100.00;102072.59;10384466;28;20075;-67
2022/07/02 02:54:54;;;;;;;8.70;4.10;;;;;;;14.41;100.00;102074.38;10378933;28;20035;-68
2022/07/02 02:59:50;;;;;;;6.60;3.65;;;;;;;14.39;100.00;102084.03;10391612;28;20074;-68
2022/07/02 03:04:46;;;;;;;6.32;3.75;;;;;;;14.35;100.00;102083.84;10386556;28;20139;-68
2022/07/02 03:09:43;;;;;;;9.27;3.50;;;;;;;14.33;100.00;102102.59;10399112;27;20480;-67
2022/07/02 03:14:39;;;;;;;6.75;3.65;;;;;;;14.31;100.00;102099.34;10387309;28;20069;-68
2022/07/02 03:19:36;;;;;;;8.15;3.72;;;;;;;14.31;100.00;102104.84;10386662;28;20054;-68
2022/07/02 03:24:33;;;;;;;6.30;3.42;;;;;;;14.28;100.00;102099.97;10387688;28;20039;-68
2022/07/02 03:29:29;;;;;;;6.20;3.67;;;;;;;14.23;100.00;102113.84;10389151;28;20093;-68
2022/07/02 03:34:26;;;;;;;8.23;3.83;;;;;;;14.21;100.00;102127.09;10383969;28;20575;-69
2022/07/02 03:39:22;;;;;;;10.88;5.00;;;;;;;14.20;100.00;102119.94;10376562;28;20590;-68
2022/07/02 03:44:19;;;;;;;8.02;5.57;;;;;;;14.16;100.00;102125.25;10378662;28;20495;-69
2022/07/02 03:49:15;;;;;;;11.25;6.05;;;;;;;14.16;100.00;102129.94;10377937;28;20178;-66
2022/07/02 03:54:12;;;;;;;8.50;6.20;;;;;;;14.17;100.00;102131.56;10375043;28;20134;-68
2022/07/02 03:59:08;;;;;;;7.80;5.38;;;;;;;14.18;100.00;102122.19;10381273;28;20551;-66
2022/07/02 04:04:06;;;;;;;9.13;5.63;;;;;;;14.18;100.00;102127.69;10371628;28;20055;-67
2022/07/02 04:09:02;;;;;;;10.07;5.38;;;;;;;14.21;100.00;102132.59;10372112;28;20065;-67
2022/07/02 04:13:59;;;;;;;7.68;5.13;;;;;;;14.25;100.00;102134.41;10370071;28;20093;-68
2022/07/02 04:18:55;;;;;;;9.27;5.28;;;;;;;14.29;100.00;102140.09;10377129;28;20089;-68
2022/07/02 04:24:09;;;;;;;8.25;5.03;;;;;;;14.35;100.00;102138.06;10374394;28;20085;-67
2022/07/02 04:29:06;;;;;;;14.25;5.25;;;;;;;14.36;100.00;102140.50;10379419;28;20090;-67
2022/07/02 04:34:02;;;;;;;9.00;4.63;;;;;;;14.41;100.00;102143.16;10374764;27;20068;-67
2022/07/02 04:39:01;;;;;;;10.77;4.82;;;;;;;14.45;100.00;102141.38;10369437;28;20047;-67
2022/07/02 04:43:58;;;;;;;7.95;4.70;;;;;;;14.49;100.00;102156.16;10369249;28;20052;-68
2022/07/02 04:48:55;;;;;;;12.35;6.05;;;;;;;14.52;100.00;102155.53;10377010;28;20071;-67
2022/07/02 04:53:51;;;;;;;7.72;4.45;;;;;;;14.57;100.00;102153.84;10377042;28;20040;-67
2022/07/02 04:58:48;;;;;;;10.43;4.50;;;;;;;14.59;100.00;102165.34;10366198;28;20040;-68
2022/07/02 05:03:44;;;;;;;9.18;4.45;;;;;;;14.62;100.00;102173.81;10374646;28;20307;-68
2022/07/02 05:08:41;;;;;;;6.85;4.28;;;;;;;14.67;100.00;102178.38;10372957;27;20067;-68
2022/07/02 05:13:37;;;;;;;9.60;4.60;;;;;;;14.73;100.00;102177.13;10373451;28;20468;-68
2022/07/02 05:18:34;;;;;;;8.48;3.97;;;;;;;14.85;100.00;102182.94;10367442;28;20100;-68
2022/07/02 05:23:31;;;;;;;9.20;4.30;;;;;;;14.92;100.00;102186.06;10384782;28;20135;-67
2022/07/02 05:28:27;;;;;;;11.52;5.00;;;;;;;15.01;100.00;102188.06;10381758;27;20073;-68
2022/07/02 05:33:24;;;;;;;7.40;3.67;;;;;;;15.13;100.00;102191.88;10365010;28;20040;-66
2022/07/02 05:38:20;;;;;;;8.82;3.55;;;;;;;15.27;100.00;102186.31;10363277;28;20079;-69
2022/07/02 05:43:16;;;;;;;9.60;3.28;;;;;;;15.33;100.00;102190.56;10365220;28;20131;-69
2022/07/02 05:48:13;;;;;;;8.02;2.83;;;;;;;15.44;100.00;102184.78;10374778;28;20088;-69
2022/07/02 05:53:09;;;;;;;10.65;2.90;;;;;;;15.52;100.00;102192.28;10372969;28;20431;-69
2022/07/02 05:58:06;;;;;;;5.25;2.58;;;;;;;15.62;100.00;102185.69;10368401;28;20079;-68
2022/07/02 06:03:02;;;;;;;10.45;2.67;;;;;;;15.72;100.00;102191.78;10375966;28;20039;-67
2022/07/02 06:07:59;;;;;;;5.90;2.50;;;;;;;15.84;100.00;102188.44;10367783;28;20090;-67
2022/07/02 06:12:56;;;;;;;5.75;2.42;;;;;;;15.92;100.00;102200.63;10368064;28;20070;-67
2022/07/02 06:17:53;;;;;;;6.30;2.28;;;;;;;16.00;100.00;102208.13;10365777;28;20420;-68
2022/07/02 06:22:49;;;;;;;8.07;2.15;;;;;;;16.11;100.00;102203.97;10369590;28;20047;-68
2022/07/02 06:27:46;;;;;;;7.28;2.10;;;;;;;16.19;100.00;102207.88;10369742;28;20400;-68
2022/07/02 06:32:42;;;;;;;6.15;1.77;;;;;;;16.33;100.00;102219.59;10383944;28;20072;-69
2022/07/02 06:37:39;;;;;;;3.35;1.13;;;;;;;16.39;100.00;102203.72;10368730;28;20547;-68
2022/07/02 06:42:35;;;;;;;6.68;1.70;;;;;;;16.51;100.00;102217.69;10377384;28;21658;-68
2022/07/02 06:47:32;;;;;;;5.70;1.40;;;;;;;16.58;100.00;102206.97;10362332;28;20381;-67
2022/07/02 06:52:29;;;;;;;5.57;1.20;;;;;;;16.72;100.00;102208.81;10366966;28;20043;-67
2022/07/02 06:57:26;;;;;;;8.32;1.33;;;;;;;16.82;100.00;102216.78;10358191;28;20512;-67
2022/07/02 07:02:22;;;;;;;4.97;1.63;;;;;;;16.95;100.00;102226.88;10370062;28;20054;-67
2022/07/02 07:07:25;;;;;;;5.88;1.30;;;;;;;17.08;100.00;102229.78;10363771;27;20044;-68
2022/07/02 07:12:23;;;;;;;4.03;1.17;;;;;;;17.22;100.00;102224.94;10370571;28;20090;-67
2022/07/02 07:17:19;;;;;;;12.80;5.03;;;;;;;17.35;100.00;102218.38;10372931;28;20044;-67
2022/07/02 07:22:16;;;;;;;3.97;0.80;;;;;;;17.48;100.00;102226.84;10372184;28;20105;-67
2022/07/02 07:27:12;;;;;;;6.18;1.55;;;;;;;17.54;100.00;102225.50;10377518;28;20043;-67
2022/07/02 07:32:09;;;;;;;5.50;1.08;;;;;;;17.64;100.00;102230.72;10365168;28;20066;-66
2022/07/02 07:37:11;;;;;;;5.25;1.25;;;;;;;17.73;100.00;102223.19;10368444;28;21050;-67
2022/07/02 07:42:08;;;;;;;5.43;1.38;;;;;;;17.78;100.00;102225.78;10369855;28;21274;-67
2022/07/02 07:47:04;;;;;;;5.28;0.93;;;;;;;17.87;100.00;102223.84;10365993;28;20039;-67
2022/07/02 07:52:01;;;;;;;6.63;1.85;;;;;;;18.00;100.00;102240.53;10368847;28;20051;-68
2022/07/02 07:56:58;;;;;;;7.22;1.20;;;;;;;18.11;100.00;102233.50;10367399;28;20096;-67
2022/07/02 08:01:54;;;;;;;2.88;0.93;;;;;;;18.19;100.00;102229.06;10368899;28;20511;-67
2022/07/02 08:06:51;;;;;;;3.92;0.90;;;;;;;18.30;100.00;102224.78;10363575;28;20052;-67
2022/07/02 08:11:47;;;;;;;3.83;0.93;;;;;;;18.41;100.00;102225.22;10368634;28;20074;-68
2022/07/02 08:16:44;;;;;;;5.07;1.20;;;;;;;18.50;100.00;102240.63;10373906;28;20093;-68
2022/07/02 08:21:41;;;;;;;6.65;1.23;;;;;;;18.50;100.00;102228.75;10369324;28;20555;-67
2022/07/02 08:26:38;;;;;;;5.43;1.02;;;;;;;18.69;100.00;102228.28;10361478;27;20040;-67
2022/07/02 08:31:34;;;;;;;8.38;1.23;;;;;;;18.80;100.00;102231.47;10352647;28;20124;-68
2022/07/02 08:36:31;;;;;;;5.55;1.15;;;;;;;18.90;100.00;102231.09;10347177;28;20060;-67
2022/07/02 08:41:28;;;;;;;4.40;1.00;;;;;;;18.99;100.00;102223.53;10350779;28;20154;-66
2022/07/02 08:46:26;;;;;;;4.63;0.88;;;;;;;19.05;97.05;102227.72;10356698;28;20060;-66
2022/07/02 08:51:23;;;;;;;3.63;0.70;;;;;;;19.16;95.68;102227.28;10367057;28;20603;-68
2022/07/02 08:56:21;;;;;;;4.70;0.82;;;;;;;19.29;95.85;102231.75;10358627;28;20052;-68
2022/07/02 09:01:18;;;;;;;3.90;0.90;;;;;;;19.39;90.03;102225.75;10369108;28;20586;-68
2022/07/02 09:06:21;;;;;;;4.97;0.55;;;;;;;19.53;88.27;102219.91;10364135;28;20040;-68
2022/07/02 09:11:18;;;;;;;4.13;0.68;;;;;;;19.64;84.15;102225.84;10361410;28;20048;-67
2022/07/02 09:16:15;;;;;;;2.72;0.55;;;;;;;19.73;78.57;102229.38;10367003;28;20040;-68
2022/07/02 09:21:12;;;;;;;2.58;0.60;;;;;;;19.84;80.50;102219.44;10371804;28;20051;-68
2022/07/02 09:26:16;;;;;;;3.95;0.93;;;;;;;19.94;78.17;102227.31;10368408;28;20040;-68
2022/07/02 09:31:13;;;;;;;2.78;0.60;;;;;;;19.94;78.37;102218.97;10355958;28;20081;-67
2022/07/02 09:36:12;;;;;;;3.67;0.60;;;;;;;20.09;67.81;102225.81;10364936;28;20039;-67
2022/07/02 09:41:12;;;;;;;4.53;0.75;;;;;;;20.17;78.01;102199.09;10352389;28;20106;-67
2022/07/02 09:46:20;;;;;;;6.07;0.73;;;;;;;20.37;65.52;102203.69;10364546;28;20036;-69
2022/07/02 09:51:17;;;;;;;4.85;0.60;;;;;;;20.58;66.07;102195.25;10367562;28;20048;-68
2022/07/02 09:56:14;;;;;;;4.05;0.52;;;;;;;20.77;67.71;102194.63;10374239;28;20036;-68
2022/07/02 10:01:11;;;;;;;4.65;0.70;;;;;;;20.44;64.95;102196.75;10357163;28;20130;-68
2022/07/02 10:06:11;;;;;;;3.38;0.45;;;;;;;20.63;63.86;102188.63;10359204;28;20462;-67
2022/07/02 10:11:09;;;;;;;4.05;0.60;;;;;;;21.10;61.27;102190.78;10368388;28;20048;-67
2022/07/02 10:16:17;;;;;;;3.80;0.65;;;;;;;21.56;60.67;102196.84;10365203;28;20079;-68
2022/07/02 10:21:15;;;;;;;3.85;0.68;;;;;;;21.08;59.77;102204.25;10362161;28;20134;-67
2022/07/02 10:26:13;;;;;;;2.00;0.40;;;;;;;21.64;59.18;102195.84;10364964;28;20048;-68
2022/07/02 10:31:20;;;;;;;2.85;0.60;;;;;;;21.16;60.50;102194.91;10370603;28;20420;-68
2022/07/02 10:36:18;;;;;;;3.58;0.70;;;;;;;21.22;58.76;102193.50;10367934;27;20068;-68
2022/07/02 10:41:24;;;;;;;2.33;0.73;;;;;;;21.43;59.40;102192.50;10361206;28;20071;-68
2022/07/02 10:46:22;;;;;;;5.68;0.73;;;;;;;23.67;51.39;102177.53;10360505;28;20101;-68
2022/07/02 10:51:23;;;;;;;2.22;0.40;;;;;;;24.62;45.59;102181.41;10364201;28;20054;-68
2022/07/02 10:56:21;;;;;;;3.85;0.68;;;;;;;26.23;42.78;102167.03;10370645;28;20052;-68
2022/07/02 11:01:22;;;;;;;3.78;0.60;;;;;;;26.93;39.37;102178.19;10376217;28;20046;-68
2022/07/02 11:06:22;;;;;;;2.83;0.35;;;;;;;27.30;37.42;102179.94;10372219;27;20466;-68
2022/07/02 11:11:36;;;;;;;3.85;0.40;;;;;;;27.94;36.94;102169.94;10364885;28;20071;-69
2022/07/02 11:16:38;;;;;;;3.72;0.90;;;;;;;26.45;37.03;102165.13;10368305;28;20072;-69
2022/07/02 11:21:39;;;;;;;2.38;0.47;;;;;;;27.26;36.67;102153.84;10370163;28;20054;-69
2022/07/02 11:26:40;;;;;;;4.23;0.50;;;;;;;28.15;36.20;102147.41;10369458;28;20124;-68
2022/07/02 11:31:39;;;;;;;1.60;0.40;;;;;;;28.40;33.68;102163.41;10372557;28;20490;-69
2022/07/02 11:36:39;;;;;;;1.92;0.40;;;;;;;27.87;34.43;102137.84;10374328;28;20059;-69
2022/07/02 11:41:36;;;;;;;4.10;0.95;;;;;;;26.46;35.20;102151.94;10376900;28;20520;-68
2022/07/02 11:46:32;;;;;;;3.42;0.80;;;;;;;25.18;37.55;102138.53;10376059;27;20096;-69
2022/07/02 11:51:29;;;;;;;5.50;0.80;;;;;;;24.95;39.63;102133.88;10378686;28;20502;-68
2022/07/02 11:56:27;;;;;;;5.15;0.70;;;;;;;24.60;39.75;102144.63;10379057;27;20056;-68
2022/07/02 12:01:26;;;;;;;2.72;0.55;;;;;;;23.89;41.51;102137.63;10385353;28;20035;-68
2022/07/02 12:06:28;;;;;;;3.97;0.60;;;;;;;23.81;43.62;102137.91;10377001;28;20136;-68
2022/07/02 12:11:25;;;;;;;4.78;0.77;;;;;;;25.43;41.15;102135.16;10386474;28;20048;-68
2022/07/02 12:16:24;;;;;;;4.13;0.70;;;;;;;25.72;39.51;102131.41;10375283;27;20096;-68
2022/07/02 12:21:20;;;;;;;3.92;0.77;;;;;;;26.04;39.21;102122.47;10378891;28;20079;-68
2022/07/02 12:26:23;;;;;;;2.42;0.60;;;;;;;25.93;40.40;102113.19;10377999;28;20090;-68
2022/07/02 12:31:19;;;;;;;5.63;0.50;;;;;;;24.99;38.87;102112.34;10373696;28;20086;-68
2022/07/02 12:36:16;;;;;;;3.15;0.70;;;;;;;24.55;39.77;102115.84;10377800;28;20525;-69
2022/07/02 12:41:12;;;;;;;2.10;0.38;;;;;;;23.98;40.05;102115.03;10374268;28;20105;-68
2022/07/02 12:46:09;;;;;;;3.03;0.50;;;;;;;24.12;42.12;102104.06;10371077;28;20086;-68
2022/07/02 12:51:10;;;;;;;2.65;0.70;;;;;;;24.22;43.29;102107.38;10371924;28;20055;-68
2022/07/02 12:56:09;;;;;;;2.92;0.60;;;;;;;23.89;43.11;102104.13;10372971;27;20048;-69
2022/07/02 13:01:05;;;;;;;2.80;0.60;;;;;;;24.37;44.70;102092.41;10379014;28;20077;-69
2022/07/02 13:06:04;;;;;;;5.30;1.58;;;;;;;24.87;41.85;102087.41;10367386;28;20051;-68
2022/07/02 13:11:02;;;;;;;3.67;0.52;;;;;;;25.32;39.99;102074.31;10368511;28;20059;-68
2022/07/02 13:15:58;;;;;;;2.63;0.57;;;;;;;25.02;40.69;102081.97;10367199;28;20097;-69
2022/07/02 13:20:55;;;;;;;3.45;0.60;;;;;;;24.66;40.30;102076.00;10371680;28;20503;-68
2022/07/02 13:25:51;;;;;;;2.67;0.75;;;;;;;24.25;40.49;102078.66;10375236;28;20035;-68
2022/07/02 13:30:48;;;;;;;5.03;0.75;;;;;;;24.39;41.26;102066.88;10370250;28;20093;-68
2022/07/02 13:35:44;;;;;;;3.78;0.50;;;;;;;24.51;43.00;102047.88;10382154;28;20043;-68
2022/07/02 13:40:41;;;;;;;3.45;0.50;;;;;;;24.35;41.20;102056.44;10382903;28;20040;-68
2022/07/02 13:45:37;;;;;;;4.18;0.70;;;;;;;24.42;41.61;102050.16;10366567;28;20133;-68
2022/07/02 13:50:34;;;;;;;3.13;0.73;;;;;;;24.67;40.49;102041.25;10366790;28;20040;-69
2022/07/02 13:55:30;;;;;;;2.10;0.50;;;;;;;24.60;43.25;102035.59;10371886;28;20044;-69
2022/07/02 14:00:27;;;;;;;1.77;0.43;;;;;;;24.32;40.89;102034.03;10369120;27;20105;-69
2022/07/02 14:05:23;;;;;;;2.83;0.60;;;;;;;24.61;42.60;102040.00;10371617;28;20074;-68
2022/07/02 14:10:20;;;;;;;2.67;0.70;;;;;;;24.67;42.13;102033.69;10381161;28;20052;-69
2022/07/02 14:15:18;;;;;;;2.05;0.60;;;;;;;24.85;42.17;102042.25;10367050;28;20476;-68
2022/07/02 14:20:15;;;;;;;3.60;0.63;;;;;;;25.11;41.91;102035.72;10378243;28;20043;-69
2022/07/02 14:25:31;;;;;;;1.67;0.40;;;;;;;25.57;38.52;102038.06;10375098;28;20052;-69
2022/07/02 14:30:28;;;;;;;2.20;0.50;;;;;;;26.46;38.25;102022.94;10373233;28;20113;-69
2022/07/02 14:35:24;;;;;;;3.33;0.70;;;;;;;26.82;37.63;102028.66;10378241;28;20940;-69
2022/07/02 14:40:21;;;;;;;3.08;0.60;;;;;;;26.30;36.58;102036.50;10351716;28;20163;-68
2022/07/02 14:45:17;;;;;;;4.53;0.60;;;;;;;25.88;41.39;102015.47;10362084;28;20056;-69
2022/07/02 14:50:14;;;;;;;3.15;0.65;;;;;;;25.71;39.60;102022.56;10362145;28;20067;-68
2022/07/02 14:55:10;;;;;;;2.95;0.70;;;;;;;25.91;38.50;102015.50;10358716;28;20075;-69
2022/07/02 15:00:09;;;;;;;1.58;0.70;;;;;;;26.17;37.95;102008.00;10357951;28;20151;-69
2022/07/02 15:05:08;;;;;;;2.45;0.63;;;;;;;26.27;40.81;101986.81;10362064;28;20043;-68
2022/07/02 15:10:06;;;;;;;2.70;0.50;;;;;;;26.19;40.38;101995.22;10372297;28;20052;-69
2022/07/02 15:20:18;;;;;;;4.22;0.52;;;;;;;25.99;39.24;101994.75;10378060;28;20055;-69
2022/07/02 15:25:21;;;;;;;3.35;0.80;;;;;;;25.70;39.52;101999.34;10384450;28;20058;-69
2022/07/02 15:30:33;;;;;;;;;;;;;;;25.73;39.26;101992.97;10373011;28;20639;-69
2022/07/02 15:35:30;;;;;;;3.22;0.80;;;;;;;25.40;39.13;101982.78;10367494;28;20391;-69
2022/07/02 15:40:27;;;;;;;2.25;0.60;;;;;;;25.35;40.19;101978.34;10374617;28;20074;-68
2022/07/02 15:45:24;;;;;;;6.97;1.15;;;;;;;25.33;39.10;101968.72;10369190;28;20086;-68
2022/07/02 15:50:20;;;;;;;3.20;0.55;;;;;;;25.15;38.86;101969.38;10386584;28;20044;-68
2022/07/02 15:55:26;;;;;;;3.70;0.77;;;;;;;25.02;39.99;101953.25;10364910;28;20051;-69
2022/07/02 16:00:23;;;;;;;6.28;0.90;;;;;;;25.13;40.59;101948.56;10362404;28;20078;-68
2022/07/02 16:05:21;;;;;;;3.70;0.70;;;;;;;26.15;39.59;101927.13;10363954;28;20550;-69
2022/07/02 16:10:19;;;;;;;3.95;0.70;;;;;;;27.23;38.97;101921.63;10381567;27;20544;-68
2022/07/02 16:15:16;;;;;;;5.60;1.00;;;;;;;27.73;40.55;101918.63;10370271;28;20083;-68
2022/07/02 16:20:14;;;;;;;2.03;0.60;;;;;;;28.00;38.42;101918.16;10374012;28;20047;-69
2022/07/02 16:25:11;;;;;;;2.28;0.50;;;;;;;27.61;34.73;101921.91;10362661;28;20127;-69
2022/07/02 16:30:11;;;;;;;3.30;0.63;;;;;;;26.88;37.53;101914.81;10369166;27;20780;-69
2022/07/02 16:35:11;;;;;;;2.78;0.70;;;;;;;26.62;37.40;101902.81;10370031;28;20051;-68
2022/07/02 16:40:09;;;;;;;2.97;0.50;;;;;;;26.45;40.95;101895.94;10366998;28;20705;-68
2022/07/02 16:45:08;;;;;;;2.63;0.80;;;;;;;26.53;41.20;101888.34;10356984;28;20100;-68
2022/07/02 16:50:08;;;;;;;3.20;0.80;;;;;;;26.52;39.49;101885.94;10360730;28;20538;-68
2022/07/02 16:55:06;;;;;;;6.00;0.75;;;;;;;27.26;38.70;101878.69;10369720;28;20126;-69
2022/07/02 17:00:09;;;;;;;3.22;0.70;;;;;;;28.01;39.01;101878.41;10353413;28;20147;-69
2022/07/02 17:05:07;;;;;;;3.65;1.10;;;;;;;28.69;41.20;101877.91;10351116;28;20063;-68
2022/07/02 17:11:28;;;;;;;4.25;1.70;;;;;;;28.69;39.44;101879.94;10356885;27;20058;-68
2022/07/02 17:15:25;;;;;;;5.28;1.90;;;;;;;28.40;37.32;101876.53;10360438;28;20109;-69
2022/07/02 17:20:21;;;;;;;4.43;0.77;;;;;;;27.56;35.44;101874.59;10359808;28;20067;-69
2022/07/02 17:25:18;;;;;;;4.18;0.75;;;;;;;27.12;38.20;101875.88;10367995;28;20055;-68
2022/07/02 17:30:15;;;;;;;2.42;1.00;;;;;;;26.62;41.55;101874.75;10376125;28;20043;-68
2022/07/02 17:35:11;;;;;;;2.72;0.80;;;;;;;26.49;42.55;101870.72;10365139;28;20040;-68
2022/07/02 17:40:08;;;;;;;4.72;1.42;;;;;;;26.43;40.03;101866.69;10361419;28;20178;-69
2022/07/02 17:45:05;;;;;;;3.60;1.30;;;;;;;26.04;42.34;101856.25;10361888;28;20609;-68
2022/07/02 17:50:02;;;;;;;4.20;1.15;;;;;;;25.80;48.95;101858.53;10363492;28;20051;-68
2022/07/02 17:55:02;;;;;;;6.60;1.13;;;;;;;25.79;61.98;101856.94;10370229;28;20104;-69
2022/07/02 17:59:59;;;;;;;4.68;1.63;;;;;;;26.66;54.50;101853.09;10351968;28;20047;-68
2022/07/02 18:04:56;;;;;;;4.82;1.67;;;;;;;26.83;57.48;101845.09;10348289;28;20079;-68
2022/07/02 18:09:52;;;;;;;4.47;1.20;;;;;;;26.36;58.43;101844.25;10360261;28;20510;-68
2022/07/02 18:14:49;;;;;;;3.17;1.20;;;;;;;25.73;65.72;101836.13;10347294;28;20401;-68
2022/07/02 18:19:46;;;;;;;3.40;1.20;;;;;;;25.21;80.34;101832.72;10348702;28;20473;-68
2022/07/02 18:24:43;;;;;;;2.80;1.38;;;;;;;24.83;82.62;101828.44;10345214;28;20138;-68
2022/07/02 18:29:39;;;;;;;4.05;1.98;;;;;;;24.48;83.60;101829.78;10359261;28;20047;-68
2022/07/02 18:34:36;;;;;;;5.15;1.20;;;;;;;24.18;87.84;101821.50;10358660;28;20047;-67
2022/07/02 18:39:33;;;;;;;5.00;1.27;;;;;;;23.92;92.34;101814.88;10355899;28;20122;-67
2022/07/02 18:44:30;;;;;;;5.38;1.20;;;;;;;23.68;96.91;101819.78;10368116;28;20584;-68
2022/07/02 18:49:26;;;;;;;2.90;1.20;;;;;;;23.47;98.89;101813.97;10360647;28;20048;-67
2022/07/02 18:54:23;;;;;;;5.57;1.45;;;;;;;23.27;100.00;101813.28;10356695;28;20178;-67
2022/07/02 18:59:20;;;;;;;4.63;1.65;;;;;;;23.11;100.00;101816.25;10353454;27;20048;-69
2022/07/02 19:04:17;;;;;;;4.40;1.83;;;;;;;23.00;100.00;101816.13;10360441;27;20138;-69
2022/07/02 19:09:14;;;;;;;18.88;5.80;;;;;;;22.87;100.00;101812.72;10363410;28;20158;-68
2022/07/02 19:14:11;;;;;;;5.68;2.85;;;;;;;22.74;100.00;101814.09;10380654;27;20047;-69
2022/07/02 19:19:07;;;;;;;5.22;2.70;;;;;;;22.62;100.00;101811.53;10351208;28;20052;-68
2022/07/02 19:24:07;;;;;;;6.28;2.90;;;;;;;22.52;100.00;101812.19;10356880;28;20096;-69
2022/07/02 19:34:21;;;;;;;5.45;2.67;;;;;;;22.28;100.00;101830.91;10356335;28;20422;-68
2022/07/02 19:39:18;;;;;;;7.07;3.25;;;;;;;22.19;100.00;101821.94;10352014;28;20047;-68
2022/07/02 19:44:14;;;;;;;5.78;2.53;;;;;;;22.03;98.61;101822.84;10362844;28;20069;-69
2022/07/02 19:49:13;;;;;;;5.57;2.88;;;;;;;21.90;99.00;101821.41;10377956;28;20078;-68
2022/07/02 19:54:09;;;;;;;6.68;2.97;;;;;;;21.78;100.00;101813.22;10362755;28;20616;-69
2022/07/02 19:59:07;;;;;;;7.65;3.28;;;;;;;21.61;100.00;101806.16;10358817;28;20048;-67
2022/07/02 20:04:07;;;;;;;5.97;3.05;;;;;;;21.52;100.00;101800.81;10355599;28;20564;-68
2022/07/02 20:09:04;;;;;;;6.75;3.35;;;;;;;21.41;100.00;101797.78;10368446;28;20722;-68
2022/07/02 20:14:02;;;;;;;9.10;3.00;;;;;;;21.29;100.00;101791.56;10371011;28;20590;-68
2022/07/02 20:18:58;;;;;;;7.78;3.30;;;;;;;21.21;100.00;101794.19;10375477;28;20649;-68
2022/07/02 20:23:55;;;;;;;9.77;3.92;;;;;;;21.09;100.00;101805.41;10380870;28;20547;-63
2022/07/02 20:28:51;;;;;;;5.78;2.78;;;;;;;20.96;100.00;101790.06;10370383;28;20047;-63
2022/07/02 20:33:48;;;;;;;5.90;3.47;;;;;;;20.90;100.00;101794.28;10367303;28;20050;-62
2022/07/02 20:38:44;;;;;;;6.93;2.58;;;;;;;20.83;100.00;101794.13;10367209;28;20048;-63
2022/07/02 20:43:41;;;;;;;4.63;2.13;;;;;;;20.76;100.00;101792.78;10378873;28;20048;-63
2022/07/02 20:48:37;;;;;;;5.57;2.33;;;;;;;20.68;100.00;101796.56;10383908;28;20040;-63
2022/07/02 20:53:34;;;;;;;4.35;2.08;;;;;;;20.61;100.00;101793.63;10367278;27;20097;-60
2022/07/02 20:58:31;;;;;;;5.53;2.33;;;;;;;20.50;100.00;101803.63;10367939;28;20088;-62
2022/07/02 21:03:28;;;;;;;4.82;1.77;;;;;;;20.39;100.00;101798.59;10374361;28;20047;-60
2022/07/02 21:08:25;;;;;;;6.35;2.08;;;;;;;20.30;100.00;101797.97;10377345;27;20097;-60
2022/07/02 21:13:21;;;;;;;5.90;2.70;;;;;;;20.24;100.00;101795.81;10367670;28;20040;-60
2022/07/02 21:18:19;;;;;;;5.80;2.60;;;;;;;20.11;100.00;101800.66;10366268;28;20075;-60
2022/07/02 21:23:15;;;;;;;5.65;2.60;;;;;;;20.08;100.00;101795.84;10370359;28;20154;-60
2022/07/02 21:28:12;;;;;;;7.93;2.35;;;;;;;20.00;100.00;101794.03;10379468;28;20051;-61
2022/07/02 21:33:08;;;;;;;5.18;2.50;;;;;;;19.91;100.00;101780.31;10379872;28;20141;-61
2022/07/02 21:38:05;;;;;;;4.68;2.13;;;;;;;19.85;100.00;101782.56;10374260;28;20044;-61
2022/07/02 21:43:01;;;;;;;3.47;1.63;;;;;;;19.79;100.00;101786.72;10376894;28;20051;-61
2022/07/02 21:48:00;;;;;;;8.15;2.33;;;;;;;19.75;100.00;101785.84;10368656;28;20074;-60
2022/07/02 21:52:56;;;;;;;7.78;2.55;;;;;;;19.74;100.00;101776.69;10367421;28;20481;-60
2022/07/02 21:57:53;;;;;;;5.28;2.20;;;;;;;19.71;100.00;101771.06;10365822;28;20503;-62
2022/07/02 22:02:49;;;;;;;4.80;2.47;;;;;;;19.67;100.00;101781.22;10376222;28;20071;-60
2022/07/02 22:07:46;;;;;;;6.90;2.58;;;;;;;19.62;100.00;101767.63;10370659;28;20079;-61
2022/07/02 22:12:42;;;;;;;7.53;2.25;;;;;;;19.59;100.00;101762.75;10373298;28;20040;-63
2022/07/02 22:17:39;;;;;;;5.68;2.97;;;;;;;19.58;100.00;101761.16;10376871;28;20471;-61
2022/07/02 22:22:35;;;;;;;5.72;2.83;;;;;;;19.57;100.00;101762.34;10363970;28;20079;-64
2022/07/02 22:27:32;;;;;;;6.35;2.53;;;;;;;19.51;100.00;101757.00;10383973;28;20138;-65
2022/07/02 22:32:28;;;;;;;6.90;2.65;;;;;;;19.50;100.00;101755.41;10359071;28;20490;-63
2022/07/02 22:37:25;;;;;;;7.38;2.85;;;;;;;19.49;100.00;101748.25;10373900;28;20139;-64
2022/07/02 22:42:21;;;;;;;4.95;2.28;;;;;;;19.46;100.00;101737.84;10372479;28;20650;-65
2022/07/02 22:47:18;;;;;;;8.27;2.58;;;;;;;19.46;100.00;101737.84;10377403;28;20082;-61